Time;durP1;ratioP1;P1;durP2;ratioP2;P2;SDS_P1;SDS_P2;PMS_P1;PMS_P2;Temp;Humidity;BMP_temperature;BMP_pressure;BME280_temperature;BME280_humidity;BME280_pressure;Samples;Min_cycle;Max_cycle;Signal;HPM_P1;HPM_P2
2023/08/18 00:00:45;;;;;;;0.80;0.80;;;;;;;;;;5032932;28;20091;-75
2023/08/18 00:03:12;;;;;;;0.98;0.95;;;;;;;;;;5024697;28;20041;-75
2023/08/18 00:05:38;;;;;;;0.90;0.90;;;;;;;;;;5032811;28;20457;-75
2023/08/18 00:08:05;;;;;;;0.88;0.88;;;;;;;;;;5032824;28;20037;-75
2023/08/18 00:10:31;;;;;;;1.05;0.95;;;;;;;;;;5032714;28;20112;-75
2023/08/18 00:12:58;;;;;;;0.80;0.80;;;;;;;;;;5032469;28;20090;-75
2023/08/18 00:15:24;;;;;;;1.15;0.90;;;;;;;;;;5032683;28;20132;-76
2023/08/18 00:17:51;;;;;;;0.98;0.93;;;;;;;;;;5032349;28;20476;-76
2023/08/18 00:20:17;;;;;;;1.00;1.00;;;;;;;;;;5032521;28;20412;-76
2023/08/18 00:22:44;;;;;;;0.90;0.90;;;;;;;;;;5032237;28;20057;-76
2023/08/18 00:25:10;;;;;;;0.98;0.98;;;;;;;;;;5032345;28;20056;-76
2023/08/18 00:27:37;;;;;;;1.50;1.00;;;;;;;;;;5032403;28;20112;-75
2023/08/18 00:30:05;;;;;;;1.02;1.00;;;;;;;;;;5032282;28;20128;-75
2023/08/18 00:32:31;;;;;;;1.15;1.05;;;;;;;;;;5032024;28;20040;-75
2023/08/18 00:34:58;;;;;;;1.23;1.13;;;;;;;;;;5031876;28;20052;-75
2023/08/18 00:37:24;;;;;;;0.90;0.90;;;;;;;;;;5031788;28;20041;-75
2023/08/18 00:39:51;;;;;;;1.00;0.95;;;;;;;;;;5031926;28;20107;-76
2023/08/18 00:42:17;;;;;;;0.80;0.75;;;;;;;;;;5021210;28;20137;-76
2023/08/18 00:44:43;;;;;;;1.05;1.02;;;;;;;;;;5012263;28;20149;-76
2023/08/18 00:47:10;;;;;;;0.98;0.90;;;;;;;;;;5012128;28;20133;-75
2023/08/18 00:49:36;;;;;;;0.90;0.90;;;;;;;;;;5012084;28;20109;-76
2023/08/18 00:52:02;;;;;;;0.85;0.82;;;;;;;;;;5012158;28;20554;-75
2023/08/18 00:54:29;;;;;;;1.08;1.02;;;;;;;;;;5011915;28;20441;-76
2023/08/18 00:56:55;;;;;;;1.23;1.15;;;;;;;;;;5012004;28;20430;-76
2023/08/18 00:59:22;;;;;;;1.10;1.00;;;;;;;;;;5012811;28;20030;-76
2023/08/18 01:01:49;;;;;;;1.15;1.05;;;25.00;72.10;;;;;;5011859;28;20509;-75
2023/08/18 01:04:15;;;;;;;1.02;0.93;;;;;;;;;;4994162;28;20026;-76
2023/08/18 01:06:41;;;;;;;1.15;1.00;;;;;;;;;;5011880;28;20033;-75
2023/08/18 01:09:07;;;;;;;1.00;1.00;;;;;;;;;;5011854;28;20412;-76
2023/08/18 01:11:41;;;;;;;0.70;0.70;;;24.90;67.50;;;;;;5011810;28;20033;-76
2023/08/18 01:14:58;;;;;;;1.00;1.00;;;25.10;68.10;;;;;;5011846;28;20042;-76
2023/08/18 01:17:34;;;;;;;1.20;1.10;;;25.00;73.60;;;;;;4931905;29;20052;-76
2023/08/18 01:20:00;;;;;;;1.00;0.80;;;;;;;;;;4931914;29;20039;-76
2023/08/18 01:22:26;;;;;;;0.95;0.95;;;;;;;;;;4975064;28;20526;-75
2023/08/18 01:25:01;;;;;;;1.05;0.85;;;24.90;73.40;;;;;;5011736;28;20488;-76
2023/08/18 01:27:31;;;;;;;0.98;0.90;;;25.00;73.30;;;;;;5012180;28;20049;-75
2023/08/18 01:29:57;;;;;;;0.98;0.88;;;24.90;70.60;;;;;;5011936;28;20034;-75
2023/08/18 01:32:28;;;;;;;0.90;0.90;;;24.90;73.40;;;;;;5011534;28;20473;-76
2023/08/18 01:34:57;;;;;;;0.90;0.90;;;24.90;73.30;;;;;;5011796;28;20084;-75
2023/08/18 01:37:25;;;;;;;0.67;0.67;;;24.90;72.30;;;;;;5011469;28;20073;-76
2023/08/18 01:39:52;;;;;;;0.90;0.90;;;24.90;71.30;;;;;;5011955;28;20101;-76
2023/08/18 01:42:18;;;;;;;0.80;0.80;;;;;;;;;;5024388;28;20049;-75
2023/08/18 01:44:44;;;;;;;1.38;1.27;;;;;;;;;;5035137;28;20084;-75
2023/08/18 01:47:10;;;;;;;0.75;0.75;;;;;;;;;;5017286;28;20040;-75
2023/08/18 01:49:37;;;;;;;2.15;1.23;;;;;;;;;;5035237;28;20042;-75
2023/08/18 01:52:03;;;;;;;0.80;0.70;;;;;;;;;;5035033;28;20033;-76
2023/08/18 01:54:30;;;;;;;0.90;0.70;;;;;;;;;;5014267;28;20040;-76
2023/08/18 01:56:57;;;;;;;1.08;0.98;;;;;;;;;;5033507;28;20041;-76
2023/08/18 01:59:24;;;;;;;1.10;0.70;;;;;;;;;;5035026;28;20034;-76
2023/08/18 02:01:50;;;;;;;0.82;0.82;;;;;;;;;;5034877;28;20069;-76
2023/08/18 02:04:17;;;;;;;1.23;1.00;;;;;;;;;;5034870;28;20040;-76
2023/08/18 02:06:43;;;;;;;1.35;1.08;;;;;;;;;;5035098;28;20037;-76
2023/08/18 02:09:10;;;;;;;1.20;1.10;;;;;;;;;;5034782;28;20030;-76
2023/08/18 02:11:36;;;;;;;1.23;1.08;;;;;;;;;;5034556;28;20532;-76
2023/08/18 02:14:03;;;;;;;0.98;0.98;;;;;;;;;;5034767;28;20038;-76
2023/08/18 02:16:29;;;;;;;1.30;0.80;;;;;;;;;;5034785;28;20049;-76
2023/08/18 02:18:56;;;;;;;1.17;1.00;;;;;;;;;;5034469;28;20029;-76
2023/08/18 02:21:22;;;;;;;0.63;0.63;;;;;;;;;;5034609;28;20041;-76
2023/08/18 02:23:51;;;;;;;1.55;0.90;;;24.70;67.70;;;;;;5034801;28;20099;-75
2023/08/18 02:26:17;;;;;;;0.88;0.88;;;;;;;;;;5034651;28;20038;-75
2023/08/18 02:28:42;;;;;;;1.20;1.08;;;;;;;;;;5034478;28;20116;-76
2023/08/18 02:31:10;;;;;;;0.60;0.60;;;;;;;;;;5034321;28;20068;-75
2023/08/18 02:33:36;;;;;;;1.00;1.00;;;;;;;;;;5034021;28;20095;-75
2023/08/18 02:36:02;;;;;;;1.15;0.93;;;;;;;;;;5034343;28;20081;-75
2023/08/18 02:38:29;;;;;;;1.00;0.90;;;24.70;72.30;;;;;;5034219;28;20030;-75
2023/08/18 02:40:55;;;;;;;0.60;0.60;;;;;;;;;;5034429;28;20041;-76
2023/08/18 02:43:23;;;;;;;0.95;0.95;;;24.70;73.60;;;;;;5015480;28;20045;-76
2023/08/18 02:45:57;;;;;;;1.13;1.02;;;24.80;73.90;;;;;;5013333;28;20041;-75
2023/08/18 02:48:27;;;;;;;0.68;0.68;;;25.20;68.20;;;;;;5013418;28;20057;-76
2023/08/18 02:51:09;;;;;;;0.93;0.70;;;25.80;68.60;;;;;;5013110;28;20125;-76
2023/08/18 02:53:37;;;;;;;0.93;0.90;;;24.70;73.70;;;;;;5012943;28;20068;-76
2023/08/18 02:56:03;;;;;;;0.70;0.70;;;;;;;;;;5012991;28;20496;-76
2023/08/18 02:58:30;;;;;;;1.25;0.90;;;24.60;73.10;;;;;;5012938;28;20076;-76
2023/08/18 03:01:00;;;;;;;1.17;0.75;;;24.70;71.00;;;;;;5012938;28;20033;-76
2023/08/18 03:03:25;;;;;;;;;;;24.30;73.70;;;;;;5013396;28;20026;-75
2023/08/18 03:05:51;;;;;;;0.75;0.75;;;;;;;;;;5013007;28;20425;-76
2023/08/18 03:08:18;;;;;;;0.70;0.70;;;;;;;;;;5012800;28;20034;-76
2023/08/18 03:10:44;;;;;;;0.80;0.80;;;;;;;;;;5012725;28;20076;-75
2023/08/18 03:13:10;;;;;;;0.70;0.60;;;;;;;;;;5012742;28;20105;-75
2023/08/18 03:15:42;;;;;;;0.70;0.63;;;;;;;;;;5012685;28;20124;-76
2023/08/18 03:18:08;;;;;;;0.70;0.70;;;;;;;;;;5012716;28;20123;-76
2023/08/18 03:20:34;;;;;;;0.98;0.85;;;;;;;;;;5012688;28;20611;-76
2023/08/18 03:23:25;;;;;;;1.13;0.80;;;24.60;68.00;;;;;;5013151;28;20076;-76
2023/08/18 03:25:51;;;;;;;0.95;0.80;;;;;;;;;;5012587;28;20071;-76
2023/08/18 03:28:17;;;;;;;0.80;0.80;;;;;;;;;;5012544;28;20037;-76
2023/08/18 03:30:43;;;;;;;1.42;1.27;;;;;;;;;;4994895;28;20492;-75
2023/08/18 03:33:09;;;;;;;0.88;0.88;;;;;;;;;;5012449;28;20476;-76
2023/08/18 03:35:38;;;;;;;0.65;0.65;;;;;;;;;;5012397;28;20108;-76
2023/08/18 03:38:04;;;;;;;0.60;0.60;;;;;;;;;;4994773;28;20049;-76
2023/08/18 03:40:30;;;;;;;0.93;0.85;;;;;;;;;;5012499;28;20108;-76
2023/08/18 03:42:56;;;;;;;0.93;0.90;;;;;;;;;;4985195;28;1073502;-76
2023/08/18 03:45:23;;;;;;;1.15;0.70;;;;;;;;;;5033053;28;20042;-76
2023/08/18 03:47:49;;;;;;;0.60;0.60;;;;;;;;;;5033045;28;20076;-76
2023/08/18 03:50:15;;;;;;;0.68;0.68;;;;;;;;;;5033502;28;20069;-76
2023/08/18 03:52:41;;;;;;;0.70;0.70;;;;;;;;;;5032845;28;20099;-76
2023/08/18 03:55:09;;;;;;;1.15;0.70;;;;;;;;;;5032787;28;20053;-76
2023/08/18 03:57:35;;;;;;;0.70;0.70;;;;;;;;;;5032682;28;20041;-76
2023/08/18 04:00:01;;;;;;;0.77;0.60;;;;;;;;;;5032838;28;20117;-76
2023/08/18 04:02:27;;;;;;;0.75;0.75;;;;;;;;;;5032702;28;20045;-75
2023/08/18 04:04:54;;;;;;;1.38;0.90;;;;;;;;;;5031832;28;20033;-75
2023/08/18 04:07:20;;;;;;;2.35;0.80;;;;;;;;;;5032578;28;20029;-75
2023/08/18 04:09:46;;;;;;;0.98;0.98;;;;;;;;;;5032566;28;20522;-75
2023/08/18 04:12:13;;;;;;;1.17;1.10;;;;;;;;;;5032698;28;20033;-75
2023/08/18 04:14:39;;;;;;;1.05;1.05;;;;;;;;;;5032475;28;20045;-75
2023/08/18 04:17:06;;;;;;;1.83;1.73;;;;;;;;;;5032571;28;20049;-75
2023/08/18 04:19:32;;;;;;;1.95;1.85;;;;;;;;;;5032801;28;20484;-75
2023/08/18 04:21:59;;;;;;;1.67;1.58;;;;;;;;;;5032449;28;20041;-75
2023/08/18 04:24:25;;;;;;;2.40;2.22;;;;;;;;;;5032418;28;20447;-75
2023/08/18 04:26:59;;;;;;;2.00;1.90;;;;;;;;;;5032068;28;20030;-75
2023/08/18 04:29:28;;;;;;;2.47;2.38;;;24.40;74.20;;;;;;5032433;28;20033;-75
2023/08/18 04:31:54;;;;;;;2.45;2.35;;;24.40;72.90;;;;;;5032099;28;20034;-75
2023/08/18 04:34:21;;;;;;;3.42;3.20;;;;;;;;;;5032279;28;20113;-75
2023/08/18 04:36:48;;;;;;;3.13;2.92;;;;;;;;;;5032169;28;20092;-75
2023/08/18 04:39:14;;;;;;;2.75;2.55;;;;;;;;;;5023903;28;20037;-75
2023/08/18 04:41:40;;;;;;;3.53;3.33;;;;;;;;;;5028279;28;20073;-75
2023/08/18 04:44:06;;;;;;;3.40;3.10;;;;;;;;;;5012233;28;20050;-76
2023/08/18 04:46:32;;;;;;;2.95;2.75;;;;;;;;;;5012838;28;20042;-75
2023/08/18 04:48:59;;;;;;;3.20;3.00;;;;;;;;;;5012244;28;20117;-75
2023/08/18 04:51:25;;;;;;;3.53;3.22;;;;;;;;;;5012361;28;20436;-75
2023/08/18 04:53:51;;;;;;;4.22;3.92;;;;;;;;;;5012258;28;20177;-75
2023/08/18 04:56:18;;;;;;;3.50;3.20;;;;;;;;;;5011825;28;20519;-75
2023/08/18 04:58:44;;;;;;;3.28;3.08;;;;;;;;;;5012208;28;20029;-75
2023/08/18 05:01:11;;;;;;;3.25;3.05;;;;;;;;;;5011821;28;20504;-75
2023/08/18 05:03:37;;;;;;;2.90;2.70;;;;;;;;;;5011704;28;20042;-75
2023/08/18 05:06:08;;;;;;;2.83;2.63;;;23.40;73.80;;;;;;5012017;28;20048;-75
2023/08/18 05:08:35;;;;;;;2.97;2.78;;;24.30;74.50;;;;;;5012077;28;20057;-75
2023/08/18 05:11:21;;;;;;;2.83;2.63;;;;;;;;;;5011584;28;20056;-75
2023/08/18 05:14:07;;;;;;;2.90;2.70;;;;;;;;;;5011600;28;20026;-75
2023/08/18 05:16:53;;;;;;;2.20;2.10;;;;;;;;;;5011689;28;20038;-75
2023/08/18 05:19:39;;;;;;;2.50;2.40;;;;;;;;;;5011480;28;20042;-76
2023/08/18 05:22:05;;;;;;;2.80;2.22;;;;;;;;;;5011664;28;20038;-76
2023/08/18 05:24:50;;;;;;;2.30;2.20;;;;;;;;;;5011867;28;20054;-75
2023/08/18 05:27:16;;;;;;;2.20;2.10;;;;;;;;;;5011829;28;20089;-75
2023/08/18 05:29:43;;;;;;;2.13;1.95;;;;;;;;;;5011646;28;20030;-75
2023/08/18 05:32:09;;;;;;;2.10;2.00;;;;;;;;;;5011486;28;20053;-74
2023/08/18 05:34:35;;;;;;;2.17;2.03;;;;;;;;;;5011669;28;20374;-75
2023/08/18 05:37:02;;;;;;;1.90;1.80;;;;;;;;;;5011397;28;20042;-75
2023/08/18 05:39:28;;;;;;;2.05;1.83;;;;;;;;;;5011675;28;20030;-74
2023/08/18 05:41:55;;;;;;;1.58;1.48;;;;;;;;;;5016712;28;20128;-75
2023/08/18 05:44:21;;;;;;;1.65;1.55;;;;;;;;;;5010491;28;20433;-75
2023/08/18 05:46:48;;;;;;;1.60;1.50;;;;;;;;;;5028046;28;20039;-75
2023/08/18 05:49:14;;;;;;;1.63;1.52;;;;;;;;;;5031162;28;20037;-74
2023/08/18 05:51:42;;;;;;;1.58;1.48;;;;;;;;;;5030978;28;20033;-76
2023/08/18 05:54:09;;;;;;;1.30;1.20;;;24.20;72.20;;;;;;5031309;28;20038;-75
2023/08/18 05:56:35;;;;;;;1.35;1.25;;;;;;;;;;5031261;28;20385;-74
2023/08/18 05:59:02;;;;;;;1.50;1.40;;;;;;;;;;5031053;28;20033;-75
2023/08/18 06:01:28;;;;;;;1.90;1.10;;;;;;;;;;5030901;28;20076;-75
2023/08/18 06:03:55;;;;;;;1.38;1.27;;;;;;;;;;5031821;28;20194;-74
2023/08/18 06:06:21;;;;;;;1.88;1.35;;;;;;;;;;5030916;28;20034;-74
2023/08/18 06:08:47;;;;;;;1.30;1.20;;;;;;;;;;5031221;28;20408;-74
2023/08/18 06:11:15;;;;;;;1.08;1.08;;;;;;;;;;5022994;28;20037;-74
2023/08/18 06:13:41;;;;;;;1.23;1.20;;;;;;;;;;5031045;28;20038;-73
2023/08/18 06:16:08;;;;;;;0.98;0.88;;;;;;;;;;5030864;28;20060;-73
2023/08/18 06:18:34;;;;;;;1.08;1.08;;;;;;;;;;5030828;28;20037;-73
2023/08/18 06:21:01;;;;;;;1.02;1.02;;;;;;;;;;5031095;28;20403;-73
2023/08/18 06:23:27;;;;;;;1.10;1.00;;;;;;;;;;5030767;28;20480;-74
2023/08/18 06:25:56;;;;;;;0.80;0.70;;;24.20;74.30;;;;;;5030794;28;20116;-74
2023/08/18 06:28:22;;;;;;;1.27;1.00;;;;;;;;;;5035189;28;20025;-73
2023/08/18 06:30:48;;;;;;;0.88;0.88;;;;;;;;;;5034856;28;20033;-76
2023/08/18 06:33:14;;;;;;;0.80;0.80;;;;;;;;;;5034575;28;20100;-74
2023/08/18 06:35:41;;;;;;;2.28;0.98;;;;;;;;;;5034386;28;20439;-74
2023/08/18 06:38:07;;;;;;;1.10;1.00;;;;;;;;;;5034427;28;20364;-73
2023/08/18 06:40:34;;;;;;;0.90;0.90;;;;;;;;;;5034405;28;20041;-74
2023/08/18 06:43:00;;;;;;;0.77;0.73;;;;;;;;;;5019643;28;20409;-74
2023/08/18 06:45:27;;;;;;;0.90;0.90;;;;;;;;;;5014634;28;20045;-75
2023/08/18 06:47:53;;;;;;;0.80;0.80;;;;;;;;;;5014441;28;20400;-74
2023/08/18 06:50:20;;;;;;;0.75;0.75;;;;;;;;;;5014516;28;20049;-74
2023/08/18 06:52:47;;;;;;;0.50;0.50;;;;;;;;;;5014218;28;20476;-72
2023/08/18 06:55:14;;;;;;;0.70;0.70;;;;;;;;;;5014258;28;20046;-73
2023/08/18 06:57:41;;;;;;;0.70;0.70;;;;;;;;;;5014321;28;20042;-71
2023/08/18 07:00:09;;;;;;;2.15;0.65;;;;;;;;;;5014581;28;20461;-72
2023/08/18 07:02:36;;;;;;;0.77;0.70;;;;;;;;;;5013909;28;20041;-71
2023/08/18 07:05:05;;;;;;;0.88;0.82;;;;;;;;;;5013817;28;20484;-71
2023/08/18 07:07:31;;;;;;;1.05;0.60;;;;;;;;;;5013914;28;20048;-72
2023/08/18 07:09:58;;;;;;;0.80;0.80;;;;;;;;;;5014072;28;20408;-73
2023/08/18 07:12:24;;;;;;;1.30;0.80;;;;;;;;;;5013811;28;20036;-73
2023/08/18 07:14:50;;;;;;;1.27;0.80;;;;;;;;;;5013946;28;20038;-73
2023/08/18 07:17:17;;;;;;;1.15;0.93;;;;;;;;;;5013858;28;20408;-72
2023/08/18 07:19:43;;;;;;;1.13;0.80;;;;;;;;;;5013482;28;20088;-72
2023/08/18 07:22:10;;;;;;;1.60;1.08;;;;;;;;;;5013690;28;20040;-73
2023/08/18 07:24:36;;;;;;;1.23;1.10;;;;;;;;;;5013310;28;20485;-73
2023/08/18 07:27:04;;;;;;;1.10;1.00;;;;;;;;;;5013258;28;20042;-73
2023/08/18 07:29:33;;;;;;;1.42;0.73;;;;;;;;;;5013261;28;20034;-73
2023/08/18 07:32:00;;;;;;;1.35;1.00;;;;;;;;;;5013665;28;20400;-73
2023/08/18 07:34:27;;;;;;;1.15;1.05;;;;;;;;;;5013356;28;20080;-73
2023/08/18 07:36:53;;;;;;;1.88;0.95;;;;;;;;;;5013136;28;20050;-73
2023/08/18 07:39:20;;;;;;;1.10;1.00;;;;;;;;;;5012856;28;20481;-73
2023/08/18 07:41:46;;;;;;;1.20;1.10;;;;;;;;;;5013147;28;20042;-74
2023/08/18 07:44:13;;;;;;;1.27;0.98;;;;;;;;;;5024529;28;20045;-73
2023/08/18 07:46:39;;;;;;;1.55;1.30;;;;;;;;;;5033064;28;20042;-73
2023/08/18 07:49:06;;;;;;;1.63;1.33;;;;;;;;;;5032790;28;20127;-72
2023/08/18 07:51:32;;;;;;;1.63;1.10;;;;;;;;;;5032761;28;20515;-72
2023/08/18 07:53:58;;;;;;;2.97;1.27;;;;;;;;;;5032859;28;20034;-72
2023/08/18 07:56:25;;;;;;;1.27;1.17;;;;;;;;;;5032522;28;20065;-73
2023/08/18 07:58:51;;;;;;;1.48;1.38;;;;;;;;;;5032663;28;20038;-72
2023/08/18 08:01:18;;;;;;;2.75;1.73;;;;;;;;;;5032927;28;20049;-72
2023/08/18 08:03:44;;;;;;;1.67;1.27;;;;;;;;;;5032608;28;20030;-72
2023/08/18 08:06:11;;;;;;;1.90;1.70;;;;;;;;;;5032986;28;20037;-72
2023/08/18 08:08:38;;;;;;;1.75;1.38;;;;;;;;;;5032789;28;20096;-72
2023/08/18 08:11:05;;;;;;;1.77;1.30;;;;;;;;;;5032826;28;20036;-72
2023/08/18 08:13:31;;;;;;;2.65;1.83;;;;;;;;;;5032279;28;20525;-72
2023/08/18 08:15:58;;;;;;;3.08;1.60;;;;;;;;;;5032254;28;20041;-72
2023/08/18 08:18:24;;;;;;;1.65;1.50;;;;;;;;;;5032465;28;20033;-71
2023/08/18 08:20:50;;;;;;;1.70;1.60;;;;;;;;;;5032586;28;20057;-72
2023/08/18 08:23:17;;;;;;;2.38;1.60;;;;;;;;;;5032092;28;20061;-72
2023/08/18 08:25:43;;;;;;;1.73;1.50;;;;;;;;;;5032508;28;20400;-72
2023/08/18 08:28:10;;;;;;;3.15;2.10;;;;;;;;;;5032504;28;20034;-71
2023/08/18 08:30:38;;;;;;;1.45;1.35;;;;;;;;;;5032100;28;20037;-72
2023/08/18 08:33:04;;;;;;;1.88;1.23;;;;;;;;;;5032290;28;20033;-73
2023/08/18 08:35:31;;;;;;;3.03;1.40;;;;;;;;;;5031793;28;20091;-72
2023/08/18 08:37:57;;;;;;;3.35;1.90;;;;;;;;;;5032209;28;20439;-77
2023/08/18 08:40:24;;;;;;;2.33;2.13;;;;;;;;;;5032087;28;20040;-73
2023/08/18 08:42:53;;;;;;;3.80;1.80;;;;;;;;;;5022762;28;20049;-73
2023/08/18 08:45:20;;;;;;;3.28;1.50;;;;;;;;;;5012237;28;20034;-74
2023/08/18 08:47:48;;;;;;;4.07;1.73;;;24.30;75.50;;;;;;5012150;28;20034;-75
2023/08/18 08:50:16;;;;;;;2.45;1.73;;;24.40;75.50;;;;;;5012023;28;20041;-77
2023/08/18 08:52:43;;;;;;;3.00;2.15;;;;;;;;;;5012034;28;20052;-76
2023/08/18 08:55:09;;;;;;;1.77;1.55;;;;;;;;;;5011871;28;20054;-77
2023/08/18 08:57:36;;;;;;;1.75;1.50;;;;;;;;;;5012208;28;20033;-76
2023/08/18 09:00:04;;;;;;;2.10;1.88;;;24.40;76.20;;;;;;5012252;28;20046;-72
2023/08/18 09:02:30;;;;;;;2.35;1.88;;;;;;;;;;5011876;28;20030;-75
2023/08/18 09:05:00;;;;;;;4.20;2.00;;;;;;;;;;5011810;28;20531;-72
2023/08/18 09:07:29;;;;;;;1.80;1.70;;;;;;;;;;5012135;28;20079;-74
2023/08/18 09:09:56;;;;;;;4.10;1.70;;;24.40;73.30;;;;;;5012084;28;20050;-72
2023/08/18 09:12:29;;;;;;;2.78;1.90;;;24.50;75.90;;;;;;5011987;28;20104;-72
2023/08/18 09:14:56;;;;;;;2.60;1.77;;;;;;;;;;5011623;28;20044;-72
2023/08/18 09:17:22;;;;;;;3.63;2.00;;;;;;;;;;5012145;28;20112;-73
2023/08/18 09:19:49;;;;;;;3.50;2.00;;;;;;;;;;5011865;28;20038;-76
2023/08/18 09:22:23;;;;;;;3.17;2.30;;;24.90;75.70;;;;;;5011958;28;20042;-77
2023/08/18 09:25:09;;;;;;;3.78;2.70;;;24.50;75.40;;;;;;4995638;28;20140;-77
2023/08/18 09:27:36;;;;;;;4.40;2.60;;;;;;;;;;5011895;28;20032;-76
2023/08/18 09:30:02;;;;;;;3.45;2.22;;;;;;;;;;5012078;28;20280;-76
2023/08/18 09:32:29;;;;;;;3.92;2.70;;;;;;;;;;5011857;28;20378;-76
2023/08/18 09:34:56;;;;;;;3.75;2.30;;;;;;;;;;5011508;28;20543;-76
2023/08/18 09:37:31;;;;;;;6.40;2.88;;;24.70;75.40;;;;;;5011839;28;20125;-76
2023/08/18 09:39:58;;;;;;;7.38;2.85;;;;;;;;;;5011935;28;20034;-76
2023/08/18 09:42:24;;;;;;;5.35;3.30;;;;;;;;;;5016395;28;20049;-76
2023/08/18 09:44:52;;;;;;;4.30;3.00;;;24.70;74.80;;;;;;5031436;28;20112;-76
2023/08/18 09:47:18;;;;;;;4.15;2.78;;;;;;;;;;5031246;28;20045;-76
2023/08/18 09:49:47;;;;;;;3.95;2.83;;;24.90;75.30;;;;;;5031224;28;20029;-74
2023/08/18 09:52:16;;;;;;;4.80;3.50;;;24.90;75.10;;;;;;5031335;28;20044;-78
2023/08/18 09:55:03;;;;;;;4.00;2.50;;;25.00;74.90;;;;;;5031179;28;20114;-78
2023/08/18 09:57:40;;;;;;;5.97;3.42;;;25.00;69.80;;;;;;5031190;28;20520;-76
2023/08/18 10:00:08;;;;;;;3.25;2.92;;;25.10;75.10;;;;;;5031293;28;20049;-77
2023/08/18 10:02:36;;;;;;;4.07;2.90;;;25.10;72.40;;;;;;5032561;28;20033;-79
2023/08/18 10:05:04;;;;;;;3.88;2.70;;;25.10;75.00;;;;;;5034799;28;20040;-76
2023/08/18 10:07:30;;;;;;;3.63;2.92;;;;;;;;;;5034714;28;20025;-78
2023/08/18 10:09:57;;;;;;;3.30;2.22;;;25.10;72.40;;;;;;5035237;28;20037;-74
2023/08/18 10:12:24;;;;;;;3.97;2.95;;;;;;;;;;5035209;28;20100;-77
2023/08/18 10:14:51;;;;;;;4.82;2.88;;;25.20;75.30;;;;;;5017448;28;20071;-75
2023/08/18 10:17:21;;;;;;;3.35;2.42;;;;;;;;;;5034947;28;20033;-75
2023/08/18 10:19:54;;;;;;;3.92;2.78;;;25.20;69.90;;;;;;5034702;28;20030;-77
2023/08/18 10:22:26;;;;;;;5.85;2.90;;;25.20;69.40;;;;;;5034325;28;20037;-78
2023/08/18 10:24:53;;;;;;;3.70;3.33;;;25.20;74.60;;;;;;5034609;28;20029;-76
2023/08/18 10:27:27;;;;;;;2.78;2.55;;;25.30;69.80;;;;;;5034476;28;20420;-75
2023/08/18 10:29:59;;;;;;;3.33;3.03;;;25.30;70.00;;;;;;5034445;28;20051;-75
2023/08/18 10:32:26;;;;;;;4.70;2.83;;;;;;;;;;5034029;28;20487;-76
2023/08/18 10:34:53;;;;;;;3.30;2.53;;;;;;;;;;5034546;28;20040;-77
2023/08/18 10:37:22;;;;;;;3.42;2.80;;;25.40;70.10;;;;;;5034512;28;20087;-76
2023/08/18 10:39:51;;;;;;;3.17;2.67;;;25.40;70.10;;;;;;5034512;28;20037;-75
2023/08/18 10:42:17;;;;;;;3.55;2.75;;;;;;;;;;5025631;28;20085;-77
2023/08/18 10:45:05;;;;;;;2.80;2.60;;;25.20;70.20;;;;;;5014446;28;20034;-81
2023/08/18 10:47:34;;;;;;;3.22;2.75;;;25.50;70.30;;;;;;5014506;28;20411;-74
2023/08/18 10:50:04;;;;;;;4.10;2.70;;;25.50;74.00;;;;;;5014559;28;20044;-74
2023/08/18 10:52:31;;;;;;;4.63;3.08;;;25.50;76.00;;;;;;5014302;28;20504;-75
2023/08/18 10:54:58;;;;;;;3.42;2.80;;;25.50;72.70;;;;;;5014276;28;20459;-74
2023/08/18 10:57:24;;;;;;;3.42;2.80;;;;;;;;;;5013951;28;20468;-74
2023/08/18 10:59:51;;;;;;;3.83;2.88;;;;;;;;;;5014149;28;20042;-74
2023/08/18 11:02:17;;;;;;;2.78;2.47;;;;;;;;;;5013695;28;20480;-74
2023/08/18 11:04:44;;;;;;;2.90;2.45;;;;;;;;;;5013897;28;20186;-74
2023/08/18 11:07:10;;;;;;;3.55;2.85;;;;;;;;;;4996507;28;20038;-74
2023/08/18 11:09:37;;;;;;;5.43;3.08;;;;;;;;;;4996434;28;20109;-73
2023/08/18 11:12:04;;;;;;;3.88;2.95;;;;;;;;;;5013608;28;20089;-73
2023/08/18 11:14:31;;;;;;;2.88;2.67;;;;;;;;;;5013356;28;20050;-74
2023/08/18 11:16:57;;;;;;;4.85;2.75;;;;;;;;;;5013294;28;20049;-74
2023/08/18 11:19:23;;;;;;;2.90;2.30;;;;;;;;;;5013469;28;20554;-74
2023/08/18 11:21:50;;;;;;;2.97;2.65;;;;;;;;;;5013335;28;20046;-74
2023/08/18 11:24:16;;;;;;;4.20;2.72;;;;;;;;;;5013549;28;20032;-74
2023/08/18 11:26:43;;;;;;;3.22;2.58;;;;;;;;;;5013573;28;20096;-74
2023/08/18 11:29:13;;;;;;;2.67;2.38;;;;;;;;;;5013911;28;20041;-74
2023/08/18 11:31:39;;;;;;;2.72;2.50;;;;;;;;;;5013850;28;20042;-74
2023/08/18 11:34:07;;;;;;;3.95;2.65;;;;;;;;;;5013360;28;20477;-74
2023/08/18 11:36:34;;;;;;;3.15;2.53;;;;;;;;;;5013616;28;20060;-74
2023/08/18 11:39:02;;;;;;;2.90;2.67;;;26.00;76.40;;;;;;5013375;28;20088;-74
2023/08/18 11:41:39;;;;;;;3.88;2.85;;;26.00;76.10;;;;;;5013297;28;20026;-74
2023/08/18 11:44:07;;;;;;;3.05;2.70;;;25.10;75.60;;;;;;5031971;28;20037;-74
2023/08/18 11:46:35;;;;;;;3.67;2.47;;;26.10;76.20;;;;;;5033164;28;20095;-77
2023/08/18 11:49:03;;;;;;;2.78;2.58;;;;;;;;;;5033383;28;20033;-79
2023/08/18 11:51:30;;;;;;;3.83;2.63;;;26.30;75.80;;;;;;5033239;28;20056;-79
2023/08/18 11:53:57;;;;;;;2.58;2.38;;;;;;;;;;5033071;28;20037;-79
2023/08/18 11:56:26;;;;;;;3.22;2.90;;;;;;;;;;5032936;28;20047;-79
2023/08/18 11:58:52;;;;;;;3.83;2.90;;;;;;;;;;5032782;28;20068;-79
2023/08/18 12:01:19;;;;;;;3.70;3.03;;;;;;;;;;5032482;28;20033;-79
2023/08/18 12:03:55;;;;;;;3.13;2.83;;;26.70;74.90;;;;;;5032919;28;20030;-78
2023/08/18 12:06:24;;;;;;;3.00;2.70;;;26.90;69.40;;;;;;5032622;28;20026;-79
2023/08/18 12:08:51;;;;;;;2.92;2.70;;;;;;;;;;5032702;28;20057;-78
2023/08/18 12:11:17;;;;;;;3.25;2.95;;;;;;;;;;5032640;28;20060;-78
2023/08/18 12:13:43;;;;;;;4.60;2.65;;;;;;;;;;5032501;28;20515;-79
2023/08/18 12:16:09;;;;;;;2.72;2.53;;;;;;;;;;5032479;28;20055;-78
2023/08/18 12:18:36;;;;;;;4.05;2.95;;;;;;;;;;5032573;28;20039;-78
2023/08/18 12:21:02;;;;;;;4.75;2.70;;;;;;;;;;5032752;28;20491;-79
2023/08/18 12:23:28;;;;;;;2.92;2.60;;;;;;;;;;5032357;28;20063;-79
2023/08/18 12:25:55;;;;;;;2.50;2.30;;;;;;;;;;5031671;28;20388;-79
2023/08/18 12:28:22;;;;;;;4.35;2.80;;;;;;;;;;5032602;28;20396;-78
2023/08/18 12:30:48;;;;;;;4.05;3.15;;;;;;;;;;5032055;28;20034;-78
2023/08/18 12:33:15;;;;;;;2.78;2.58;;;;;;;;;;5032280;28;20424;-78
2023/08/18 12:35:41;;;;;;;2.70;2.50;;;;;;;;;;5031864;28;20484;-78
2023/08/18 12:38:08;;;;;;;3.10;2.45;;;;;;;;;;5032268;28;20076;-78
2023/08/18 12:40:34;;;;;;;2.70;2.50;;;;;;;;;;5032389;28;20041;-80
2023/08/18 12:43:02;;;;;;;2.60;2.40;;;;;;;;;;5017478;28;20516;-81
2023/08/18 12:45:29;;;;;;;2.88;2.63;;;;;;;;;;5012250;28;20519;-80
2023/08/18 12:47:55;;;;;;;3.33;2.90;;;;;;;;;;5012531;28;20044;-81
2023/08/18 12:50:22;;;;;;;2.70;2.50;;;;;;;;;;5012496;28;20421;-80
2023/08/18 12:52:48;;;;;;;2.50;2.30;;;;;;;;;;5012373;28;20088;-81
2023/08/18 12:55:14;;;;;;;2.88;2.63;;;;;;;;;;5012018;28;20570;-80
2023/08/18 12:57:41;;;;;;;3.13;2.72;;;;;;;;;;5012271;28;20048;-83
2023/08/18 13:00:10;;;;;;;2.88;2.65;;;;;;;;;;5012252;28;20038;-81
2023/08/18 13:02:38;;;;;;;2.80;2.60;;;;;;;;;;5011810;28;20489;-81
2023/08/18 13:05:04;;;;;;;2.90;2.70;;;;;;;;;;5012204;28;20121;-87
2023/08/18 13:07:31;;;;;;;2.92;2.72;;;;;;;;;;5012146;28;20033;-78
2023/08/18 13:09:57;;;;;;;2.90;2.42;;;;;;;;;;5011915;28;20555;-80
2023/08/18 13:12:24;;;;;;;2.80;2.60;;;;;;;;;;5012176;28;20108;-79
2023/08/18 13:14:50;;;;;;;2.80;2.60;;;;;;;;;;5011698;28;20026;-79
2023/08/18 13:17:16;;;;;;;5.07;2.95;;;;;;;;;;5011735;28;20369;-79
2023/08/18 13:19:43;;;;;;;3.00;2.80;;;;;;;;;;5012148;28;20429;-79
2023/08/18 13:22:09;;;;;;;2.85;2.65;;;;;;;;;;5011941;28;20046;-78
2023/08/18 13:24:35;;;;;;;3.55;2.40;;;;;;;;;;5011524;28;20042;-79
2023/08/18 13:27:01;;;;;;;3.17;2.88;;;;;;;;;;5011564;28;20034;-78
2023/08/18 13:29:28;;;;;;;2.80;2.60;;;;;;;;;;5011852;28;20156;-79
2023/08/18 13:31:54;;;;;;;3.92;3.13;;;;;;;;;;5011872;28;20120;-79
2023/08/18 13:34:21;;;;;;;3.22;2.85;;;29.30;73.00;;;;;;5011596;28;20492;-79
2023/08/18 13:36:47;;;;;;;3.08;2.70;;;;;;;;;;5013395;28;20041;-79
2023/08/18 13:39:15;;;;;;;2.58;2.38;;;;;;;;;;5015504;28;20116;-79
2023/08/18 13:41:42;;;;;;;3.42;3.13;;;;;;;;;;5015465;28;20436;-79
2023/08/18 13:44:08;;;;;;;2.97;2.72;;;;;;;;;;5034539;28;20040;-79
2023/08/18 13:46:35;;;;;;;3.28;2.97;;;;;;;;;;5035417;28;20052;-79
2023/08/18 13:49:00;;;;;;;3.58;3.10;;;;;;;;;;5035116;28;20472;-79
2023/08/18 13:51:29;;;;;;;3.40;3.10;;;;;;;;;;5035159;28;20053;-79
2023/08/18 13:53:55;;;;;;;3.33;2.70;;;;;;;;;;5035150;28;20033;-79
2023/08/18 13:56:21;;;;;;;3.85;3.45;;;;;;;;;;5034893;28;20041;-78
2023/08/18 13:58:48;;;;;;;3.47;2.80;;;;;;;;;;5035187;28;20064;-79
2023/08/18 14:01:14;;;;;;;3.40;2.97;;;;;;;;;;5034751;28;20404;-79
2023/08/18 14:03:40;;;;;;;3.90;2.63;;;;;;;;;;5034703;28;20448;-78
2023/08/18 14:06:07;;;;;;;2.70;2.50;;;;;;;;;;5034596;28;20539;-79
2023/08/18 14:08:33;;;;;;;3.72;2.67;;;;;;;;;;5034964;28;20133;-78
2023/08/18 14:11:00;;;;;;;2.83;2.63;;;;;;;;;;5035132;28;20041;-78
2023/08/18 14:13:26;;;;;;;3.72;3.30;;;;;;;;;;5035361;28;20088;-78
2023/08/18 14:15:52;;;;;;;3.40;3.10;;;;;;;;;;5034765;28;20050;-78
2023/08/18 14:18:18;;;;;;;3.40;3.10;;;;;;;;;;5035007;28;20275;-78
2023/08/18 14:20:44;;;;;;;3.10;2.90;;;;;;;;;;5017053;28;20500;-78